ADDS METAR Data INFO
IDs: Format: Raw Decoded Include TAF

Data at: 0202 UTC 17 Oct 2017

KHUM 170155Z AUTO 01009KT 10SM CLR 18/09 A3016 RMK AO2 T01810089
KHUM 170135Z AUTO 36010KT 10SM CLR 18/09 A3015 RMK AO2 T01820092
KHUM 170115Z AUTO 01008KT 7SM CLR 19/09 A3015 RMK AO2 T01850089
KHUM 170055Z AUTO 01009KT 10SM CLR 18/10 A3014 RMK AO2 T01800103
KHUM 170035Z AUTO 01005KT 7SM CLR 17/14 A3013 RMK AO2 T01710144
KHUM 170015Z AUTO 03004KT 10SM CLR 19/10 A3013 RMK AO2 T01870097
KHUM 162347Z 02006KT 7SM SKC 19/09 A3011 RMK LAST
KHUM 162250Z 36010KT 7SM SKC 21/09 A3009
KHUM 162150Z 01012KT 7SM SKC 22/10 A3007
KHUM 162050Z 01012G18KT 7SM SKC 23/11 A3006
KHUM 161950Z 01012G15KT 7SM SKC 23/13 A3007
KHUM 161850Z 01012G20KT 7SM SCT110 23/14 A3007
KHUM 161750Z 01012G20KT 7SM FEW015 SCT110 21/18 A3011
KHUM 161650Z 01012G22KT 7SM BKN013 19/17 A3014
KHUM 161550Z 36012G21KT 7SM BKN011 19/17 A3015
KHUM 161447Z 36012G15KT 7SM OVC007 18/17 A3015
KHUM 161430Z 36013G18KT 7SM OVC007 22/17 A3015
KHUM 161355Z 36016KT 7SM OVC010 21/18 A3014
KHUM 161247Z 36008KT 7SM OVC013 20/19 A3010
KHUM 161150Z 36008KT 7SM OVC013 21/18 A3009
KHUM 161135Z AUTO 36009KT 10SM OVC013 A3009 RMK AO2 LTG DSNT SE
KHUM 161115Z AUTO 36010G16KT 10SM OVC013 A3008 RMK AO2 LTG DSNT E
KHUM 161055Z AUTO 36010KT 10SM OVC013 A3007 RMK AO2 LTG DSNT N AND E
KHUM 161047Z 36013G16KT 7SM OVC013 20/19 A3007
KHUM 161035Z AUTO 36012KT 10SM OVC015 A3007 RMK AO2 LTG DSNT SE AND S
KHUM 161015Z AUTO 36011KT 7SM OVC015 A3006 RMK AO2
KHUM 160955Z AUTO 36008KT 10SM OVC015 A3006 RMK AO2 LTG DSNT SE
KHUM 160935Z AUTO 36010G14KT 10SM OVC013 A3006 RMK AO2
KHUM 160915Z AUTO 36012G17KT 10SM OVC011 A3005 RMK AO2
KHUM 160855Z AUTO 35012KT 7SM OVC009 A3004 RMK AO2
KHUM 160835Z AUTO 35012KT 7SM OVC007 A3004 RMK AO2
KHUM 160815Z AUTO 36013G17KT 7SM OVC005 A3005 RMK AO2
KHUM 160755Z AUTO 33007KT 5SM HZ OVC005 A3004 RMK AO2
KHUM 160735Z AUTO 34004KT 7SM BKN005 BKN010 OVC017 A3005 RMK AO2
KHUM 160715Z AUTO 34004KT 5SM HZ BKN003 BKN008 BKN028 A3005 RMK AO2
KHUM 160655Z AUTO 36003KT 2 1/2SM BR BKN001 A3004 RMK AO2
KHUM 160635Z AUTO 00000KT 5SM HZ CLR A3004 RMK AO2
KHUM 160615Z AUTO 00000KT 4SM HZ CLR A3005 RMK AO2
KHUM 160555Z AUTO 00000KT 7SM CLR A3005 RMK AO2
KHUM 160535Z AUTO 00000KT 7SM CLR A3006 RMK AO2
KHUM 160515Z AUTO 00000KT 7SM CLR A3006 RMK AO2
KHUM 160455Z AUTO 00000KT 7SM CLR A3006 RMK AO2
KHUM 160435Z AUTO 35004KT 7SM CLR A3007 RMK AO2
KHUM 160415Z AUTO 35004KT 5SM HZ CLR A3007 RMK AO2
KHUM 160355Z AUTO 00000KT 7SM CLR A3007 RMK AO2
KHUM 160335Z AUTO 35003KT 7SM CLR A3006 RMK AO2
KHUM 160315Z AUTO 00000KT 7SM CLR A3006 RMK AO2
KHUM 160255Z AUTO 00000KT 7SM CLR A3006 RMK AO2
KHUM 160235Z AUTO 00000KT 7SM CLR A3006 RMK AO2
KHUM 160215Z AUTO 35004KT 7SM CLR A3006 RMK AO2
KHUM 160155Z AUTO 35004KT 7SM CLR A3005 RMK AO2
KHUM 160135Z AUTO 03003KT 7SM CLR A3005 RMK AO2 LTG DSNT SE
KHUM 160115Z AUTO 00000KT 7SM CLR A3004 RMK AO2
KHUM 160055Z AUTO 00000KT 7SM CLR A3004 RMK AO2
KHUM 160035Z AUTO 00000KT 7SM SCT065 A3003 RMK AO2 LTG DSNT E
KHUM 160015Z AUTO 00000KT 7SM CLR A3004 RMK AO2 LTG DSNT E
KHUM 152350Z 00000KT 7SM SKC 25/24 A3003 RMK LAST
KHUM 152250Z 00000KT 7SM SKC 25/24 A3002
KHUM 152148Z 00000KT 7SM SCT070 25/24 A3002
KHUM 152048Z 13005KT 7SM SCT021 26/24 A3001
KHUM 151948Z 00000KT 7SM SCT014 BKN046 27/25 A3000
KHUM 151843Z 23003KT 3SM SCT010 BKN016 25/23 A3002 RMK LTG DSNT ALL QUADS
KHUM 151823Z 06003KT 1/4SM BKN007 25/23 A3005 RMK LTG DSNT ALL QUADS
KHUM 151747Z 11004KT 7SM SCT026 31/28 A3004 RMK LTG W N W QUADS
KHUM 151647Z 16005KT 7SM SCT022 31/28 A3007
KHUM 151547Z 17006KT 7SM SCT029 29/26 A3008
KHUM 151450Z 06004KT 7SM SCT016 29/27 A3007